createdAt,value
2022-09-01T00:00:31.330Z,91.74
2022-09-01T00:01:31.314Z,91.54
2022-09-01T00:02:31.400Z,91.65
2022-09-01T00:03:31.289Z,92.05
2022-09-01T00:04:31.299Z,92.05
2022-09-01T00:05:31.263Z,91.34
2022-09-01T00:06:31.251Z,90.87
2022-09-01T00:07:31.239Z,91.28
2022-09-01T00:08:31.225Z,91.79
2022-09-01T00:09:31.211Z,92.71
2022-09-01T00:10:31.199Z,93.32
2022-09-01T00:11:31.185Z,93.46
2022-09-01T00:12:31.176Z,93.36
2022-09-01T00:13:31.159Z,93.16
2022-09-01T00:14:31.195Z,93.26
2022-09-01T00:15:31.211Z,93.87
2022-09-01T00:16:31.121Z,93.87
2022-09-01T00:17:31.107Z,94.12
2022-09-01T00:18:31.097Z,94.02
2022-09-01T00:19:31.082Z,93.71
2022-09-01T00:20:31.069Z,93.31
2022-09-01T00:21:31.056Z,93.71
2022-09-01T00:22:31.044Z,93.85
2022-09-01T00:23:31.030Z,94.17
2022-09-01T00:24:31.020Z,94.06
2022-09-01T00:25:31.004Z,93.85
2022-09-01T00:26:30.993Z,94.47
2022-09-01T00:27:31.222Z,94.17
2022-09-01T00:28:30.967Z,94.37
2022-09-01T00:29:30.952Z,94.37
2022-09-01T00:30:30.941Z,94.92
2022-09-01T00:31:30.997Z,95.44
2022-09-01T00:32:30.915Z,97.23
2022-09-01T00:34:30.889Z,98.51
2022-09-01T00:35:30.875Z,97.90
2022-09-01T00:36:30.869Z,97.08
2022-09-01T00:37:30.849Z,97.39
2022-09-01T00:38:30.839Z,97.55
2022-09-01T00:39:30.824Z,98.01
2022-09-01T00:40:30.880Z,96.48
2022-09-01T00:41:30.798Z,95.26
2022-09-01T00:42:30.792Z,94.64
2022-09-01T00:43:30.772Z,94.54
2022-09-01T00:44:31.299Z,94.54
2022-09-01T00:45:30.747Z,94.23
2022-09-01T00:46:30.781Z,93.83
2022-09-01T00:47:30.721Z,93.46
2022-09-01T00:48:30.710Z,92.85
2022-09-01T00:49:31.631Z,93.77
2022-09-01T00:50:30.683Z,95.00
2022-09-01T00:51:30.671Z,95.26
2022-09-01T00:52:30.657Z,95.15
2022-09-01T00:53:30.644Z,94.28
2022-09-01T00:54:30.632Z,94.28
2022-09-01T00:55:30.622Z,94.18
2022-09-01T00:56:30.605Z,94.79
2022-09-01T00:57:30.591Z,95.00
2022-09-01T00:58:30.579Z,95.09
2022-09-01T00:59:30.567Z,95.77
2022-09-01T01:00:30.553Z,96.07
2022-09-01T01:01:30.575Z,95.66
2022-09-01T01:02:30.587Z,94.95
2022-09-01T01:03:30.515Z,94.34
2022-09-01T01:04:30.502Z,94.64
2022-09-01T01:05:30.488Z,95.05
2022-09-01T01:06:30.801Z,94.79
2022-09-01T01:07:30.462Z,93.97
2022-09-01T01:08:30.451Z,93.77
2022-09-01T01:09:30.438Z,94.18
2022-09-01T01:10:30.426Z,94.28
2022-09-01T01:11:30.411Z,94.43
2022-09-01T01:12:30.398Z,94.32
2022-09-01T01:13:30.386Z,94.53
2022-09-01T01:14:30.373Z,94.32
2022-09-01T01:15:30.359Z,94.94
2022-09-01T01:16:30.375Z,94.94
2022-09-01T01:17:30.333Z,94.73
2022-09-01T01:18:30.321Z,94.53
2022-09-01T01:19:30.310Z,93.92
2022-09-01T01:20:30.305Z,94.06
2022-09-01T01:21:30.282Z,94.37
2022-09-01T01:22:30.271Z,93.96
2022-09-01T01:23:30.255Z,93.76
2022-09-01T01:24:30.244Z,94.11
2022-09-01T01:25:30.230Z,94.72
2022-09-01T01:26:30.216Z,94.72
2022-09-01T01:27:30.208Z,94.72
2022-09-01T01:28:30.192Z,94.92
2022-09-01T01:29:30.178Z,95.64
2022-09-01T01:30:30.219Z,96.15
2022-09-01T01:31:30.155Z,96.66
2022-09-01T01:32:30.139Z,97.54
2022-09-01T01:33:30.127Z,99.12
2022-09-01T01:34:30.114Z,98.57
2022-09-01T01:35:30.101Z,97.96
2022-09-01T01:36:30.088Z,97.19
2022-09-01T01:37:30.075Z,96.38
2022-09-01T01:38:30.070Z,95.42
2022-09-01T01:39:30.052Z,94.29
2022-09-01T01:40:30.157Z,93.33
2022-09-01T01:41:30.028Z,92.62
2022-09-01T01:42:30.018Z,91.50
2022-09-01T01:43:30.000Z,90.89
2022-09-01T01:44:29.983Z,90.68
2022-09-01T01:45:29.973Z,89.81
2022-09-01T01:46:30.084Z,89.20
2022-09-01T01:47:29.947Z,90.72
2022-09-01T01:48:29.932Z,91.03
2022-09-01T01:49:29.921Z,91.28
2022-09-01T01:50:29.918Z,91.48
2022-09-01T01:51:29.895Z,91.69
2022-09-01T01:52:29.882Z,91.69
2022-09-01T01:53:29.870Z,91.89
2022-09-01T01:54:29.855Z,91.32
2022-09-01T01:55:29.843Z,89.99
2022-09-01T01:56:29.835Z,91.02
2022-09-01T01:57:29.817Z,90.24
2022-09-01T01:58:29.803Z,90.08
2022-09-01T01:59:29.795Z,90.63
2022-09-01T02:00:30.787Z,91.65
2022-09-01T02:01:29.837Z,92.37
2022-09-01T02:02:29.809Z,93.54
2022-09-01T02:03:29.741Z,94.46
2022-09-01T02:04:29.726Z,94.56
2022-09-01T02:05:29.717Z,94.56
2022-09-01T02:06:29.700Z,94.40
2022-09-01T02:07:31.509Z,94.60
2022-09-01T02:08:29.675Z,94.70
2022-09-01T02:09:29.662Z,94.60
2022-09-01T02:10:29.649Z,95.01
2022-09-01T02:11:29.638Z,95.16
2022-09-01T02:12:29.622Z,95.57
2022-09-01T02:13:29.610Z,95.98
2022-09-01T02:14:29.596Z,96.69
2022-09-01T02:15:29.586Z,97.00
2022-09-01T02:16:29.648Z,97.21
2022-09-01T02:17:29.556Z,97.41
2022-09-01T02:18:29.543Z,97.92
2022-09-01T02:19:29.530Z,98.02
2022-09-01T02:20:29.515Z,97.82
2022-09-01T02:21:29.504Z,97.51
2022-09-01T02:22:29.489Z,97.31
2022-09-01T02:23:29.477Z,97.00
2022-09-01T02:24:29.462Z,97.00
2022-09-01T02:25:29.450Z,97.41
2022-09-01T02:26:29.436Z,97.41
2022-09-01T02:27:29.426Z,97.51
2022-09-01T02:28:29.408Z,99.21
2022-09-01T02:29:29.397Z,99.51
2022-09-01T02:30:29.420Z,99.99
2022-09-01T02:31:29.372Z,99.99
2022-09-01T02:32:29.358Z,99.99
2022-09-01T02:33:29.346Z,99.87
2022-09-01T02:34:29.335Z,99.78
2022-09-01T02:35:29.319Z,99.46
2022-09-01T02:36:29.305Z,99.10
2022-09-01T02:37:29.302Z,98.69
2022-09-01T02:38:29.278Z,97.97
2022-09-01T02:39:29.266Z,97.92
2022-09-01T02:40:29.325Z,97.72
2022-09-01T02:41:29.511Z,98.02
2022-09-01T02:42:29.225Z,98.18
2022-09-01T02:43:29.213Z,98.29
2022-09-01T02:44:29.241Z,98.39
2022-09-01T02:45:29.187Z,98.49
2022-09-01T02:46:29.172Z,99.10
2022-09-01T02:47:29.797Z,99.71
2022-09-01T02:48:29.144Z,99.99
2022-09-01T02:49:29.132Z,99.99
2022-09-01T02:50:29.118Z,99.99
2022-09-01T02:51:29.114Z,99.98
2022-09-01T02:52:29.093Z,99.57
2022-09-01T02:53:29.080Z,99.51
2022-09-01T02:54:29.066Z,99.21
2022-09-01T02:55:29.054Z,99.51
2022-09-01T02:56:29.046Z,99.46
2022-09-01T02:57:29.029Z,99.57
2022-09-01T02:58:29.016Z,99.46
2022-09-01T02:59:29.010Z,99.16
2022-09-01T03:00:28.988Z,99.26
2022-09-01T03:01:29.084Z,98.85
2022-09-01T03:02:28.962Z,98.96
2022-09-01T03:03:28.949Z,98.65
2022-09-01T03:04:28.960Z,98.39
2022-09-01T03:05:28.922Z,98.08
2022-09-01T03:06:28.913Z,97.67
2022-09-01T03:07:28.899Z,97.51
2022-09-01T03:08:28.883Z,98.33
2022-09-01T03:09:28.872Z,99.41
2022-09-01T03:10:28.856Z,99.92
2022-09-01T03:11:28.844Z,99.62
2022-09-01T03:12:28.830Z,99.41
2022-09-01T03:13:28.817Z,99.00
2022-09-01T03:14:28.809Z,98.74
2022-09-01T03:15:28.790Z,99.15
2022-09-01T03:16:28.865Z,99.15
2022-09-01T03:17:28.765Z,99.87
2022-09-01T03:18:28.751Z,99.99
2022-09-01T03:19:28.738Z,99.99
2022-09-01T03:20:28.723Z,99.99
2022-09-01T03:21:28.713Z,99.42
2022-09-01T03:22:28.704Z,98.25
2022-09-01T03:23:28.685Z,97.33
2022-09-01T03:24:28.671Z,95.86
2022-09-01T03:25:28.660Z,94.28
2022-09-01T03:26:28.644Z,93.40
2022-09-01T03:27:28.633Z,93.20
2022-09-01T03:28:28.619Z,92.99
2022-09-01T03:29:28.605Z,92.69
2022-09-01T03:30:28.592Z,92.79
2022-09-01T03:31:30.873Z,92.53
2022-09-01T03:32:28.565Z,92.94
2022-09-01T03:33:28.557Z,92.94
2022-09-01T03:34:28.539Z,93.24
2022-09-01T03:35:28.527Z,93.65
2022-09-01T03:36:28.523Z,93.96
2022-09-01T03:37:28.501Z,94.37
2022-09-01T03:38:28.487Z,94.31
2022-09-01T03:39:28.475Z,94.31
2022-09-01T03:40:28.507Z,94.41
2022-09-01T03:41:28.498Z,94.31
2022-09-01T03:42:28.438Z,94.21
2022-09-01T03:43:35.720Z,93.70
2022-09-01T03:44:28.410Z,92.77
2022-09-01T03:45:28.440Z,91.80
2022-09-01T03:46:30.274Z,91.90
2022-09-01T03:47:28.372Z,92.55
2022-09-01T03:48:28.358Z,92.15
2022-09-01T03:49:28.351Z,92.66
2022-09-01T03:50:28.333Z,92.76
2022-09-01T03:51:28.322Z,92.81
2022-09-01T03:52:28.306Z,92.81
2022-09-01T03:53:28.295Z,93.42
2022-09-01T03:54:28.280Z,93.83
2022-09-01T03:55:28.268Z,94.44
2022-09-01T03:56:28.254Z,94.85
2022-09-01T03:57:28.242Z,95.20
2022-09-01T03:58:28.232Z,95.20
2022-09-01T03:59:28.216Z,95.51
2022-09-01T04:00:28.202Z,95.61
2022-09-01T04:01:28.321Z,95.86
2022-09-01T04:02:28.264Z,96.47
2022-09-01T04:03:28.971Z,97.30
2022-09-01T04:04:28.150Z,97.97
2022-09-01T04:05:28.135Z,98.07
2022-09-01T04:06:28.120Z,98.01
2022-09-01T04:07:28.109Z,98.68
2022-09-01T04:08:32.329Z,99.05
2022-09-01T04:09:28.087Z,99.05
2022-09-01T04:10:28.068Z,99.05
2022-09-01T04:11:28.057Z,98.74
2022-09-01T04:12:28.040Z,98.33
2022-09-01T04:13:28.029Z,98.02
2022-09-01T04:14:29.271Z,97.88
2022-09-01T04:15:28.002Z,97.47
2022-09-01T04:16:28.111Z,97.06
2022-09-01T04:17:30.555Z,96.75
2022-09-01T04:18:27.963Z,97.26
2022-09-01T04:19:27.953Z,97.77
2022-09-01T04:20:27.938Z,97.57
2022-09-01T04:21:27.927Z,97.36
2022-09-01T04:22:27.913Z,97.26
2022-09-01T04:23:27.909Z,96.96
2022-09-01T04:24:27.884Z,96.34
2022-09-01T04:25:27.872Z,95.77
2022-09-01T04:26:27.858Z,95.26
2022-09-01T04:27:27.846Z,95.16
2022-09-01T04:28:27.834Z,95.67
2022-09-01T04:29:27.869Z,95.98
2022-09-01T04:30:27.806Z,95.98
2022-09-01T04:31:28.017Z,96.18
2022-09-01T04:32:27.778Z,96.18
2022-09-01T04:33:27.768Z,96.69
2022-09-01T04:35:27.739Z,96.75
2022-09-01T04:36:27.724Z,96.39
2022-09-01T04:37:27.712Z,96.08
2022-09-01T04:38:27.699Z,95.36
2022-09-01T04:39:27.687Z,95.10
2022-09-01T04:40:27.724Z,95.51
2022-09-01T04:41:27.660Z,97.00
2022-09-01T04:42:27.670Z,97.31
2022-09-01T04:43:27.633Z,97.00
2022-09-01T04:44:27.618Z,96.13
2022-09-01T04:45:27.621Z,96.02
2022-09-01T04:46:27.592Z,96.23
2022-09-01T04:47:27.579Z,96.27
2022-09-01T04:48:27.565Z,96.17
2022-09-01T04:49:27.553Z,96.38
2022-09-01T04:50:27.538Z,96.78
2022-09-01T04:51:27.541Z,97.30
2022-09-01T04:52:27.511Z,97.81
2022-09-01T04:53:28.578Z,98.12
2022-09-01T04:54:27.485Z,98.32
2022-09-01T04:55:27.474Z,98.32
2022-09-01T04:56:27.458Z,98.32
2022-09-01T04:57:27.446Z,98.01
2022-09-01T04:58:27.431Z,98.12
2022-09-01T04:59:27.419Z,98.01
2022-09-01T05:00:27.404Z,98.22
2022-09-01T05:01:27.440Z,98.99
2022-09-01T05:02:27.503Z,98.89
2022-09-01T05:03:27.368Z,99.50
2022-09-01T05:04:27.357Z,99.97
2022-09-01T05:05:27.338Z,99.99
2022-09-01T05:06:27.332Z,99.98
2022-09-01T05:07:27.312Z,99.01
2022-09-01T05:08:27.301Z,97.84
2022-09-01T05:09:27.286Z,96.51
2022-09-01T05:10:27.272Z,95.45
2022-09-01T05:11:27.261Z,94.94
2022-09-01T05:12:27.245Z,94.22
2022-09-01T05:13:27.235Z,93.92
2022-09-01T05:14:27.224Z,93.36
2022-09-01T05:15:27.208Z,92.95
2022-09-01T05:16:27.249Z,92.75
2022-09-01T05:17:27.181Z,92.34
2022-09-01T05:18:27.168Z,91.93
2022-09-01T05:19:27.155Z,92.18
2022-09-01T05:20:27.142Z,92.24
2022-09-01T05:21:27.131Z,92.08
2022-09-01T05:22:27.115Z,92.28
2022-09-01T05:23:27.104Z,92.08
2022-09-01T05:24:27.090Z,92.49
2022-09-01T05:25:27.078Z,92.90
2022-09-01T05:26:27.066Z,93.67
2022-09-01T05:27:27.054Z,93.87
2022-09-01T05:28:27.038Z,93.46
2022-09-01T05:29:27.027Z,93.06
2022-09-01T05:30:27.012Z,93.01
2022-09-01T05:31:27.035Z,92.91
2022-09-01T05:32:26.987Z,92.71
2022-09-01T05:33:26.974Z,92.40
2022-09-01T05:34:26.991Z,92.15
2022-09-01T05:35:32.357Z,91.65
2022-09-01T05:36:26.946Z,91.24
2022-09-01T05:37:26.923Z,91.13
2022-09-01T05:38:26.910Z,90.83
2022-09-01T05:39:26.896Z,90.63
2022-09-01T05:40:26.941Z,90.48
2022-09-01T05:41:26.871Z,90.48
2022-09-01T05:42:26.857Z,89.87
2022-09-01T05:43:26.844Z,89.56
2022-09-01T05:44:26.833Z,89.87
2022-09-01T05:45:26.819Z,89.42
2022-09-01T05:46:26.837Z,89.22
2022-09-01T05:47:26.792Z,89.01
2022-09-01T05:48:26.779Z,88.67
2022-09-01T05:49:26.770Z,88.36
2022-09-01T05:50:26.754Z,88.76
2022-09-01T05:51:43.259Z,88.87
2022-09-01T05:52:28.727Z,89.13
2022-09-01T05:53:26.988Z,88.52
2022-09-01T05:54:26.702Z,88.01
2022-09-01T05:55:26.692Z,87.91
2022-09-01T05:56:26.678Z,87.97
2022-09-01T05:57:35.084Z,87.87
2022-09-01T05:59:22.352Z,87.56
2022-09-01T05:59:26.872Z,87.77
2022-09-01T06:00:26.626Z,87.26
2022-09-01T06:01:26.694Z,87.22
2022-09-01T06:02:26.765Z,87.12
2022-09-01T06:03:26.820Z,86.81
2022-09-01T06:04:26.576Z,86.46
2022-09-01T06:05:26.560Z,85.16
2022-09-01T06:06:26.551Z,83.26
2022-09-01T06:07:26.535Z,80.88
2022-09-01T06:08:26.524Z,78.68
2022-09-01T06:09:26.518Z,77.86
2022-09-01T06:10:26.618Z,75.63
2022-09-01T06:11:26.483Z,72.60
2022-09-01T06:12:26.472Z,70.39
2022-09-01T06:13:27.563Z,66.80
2022-09-01T06:14:26.445Z,65.96
2022-09-01T06:15:26.430Z,67.43
2022-09-01T06:16:26.497Z,69.48
2022-09-01T06:17:26.407Z,69.95
2022-09-01T06:18:26.394Z,70.45
2022-09-01T06:19:26.379Z,73.52
2022-09-01T06:20:26.407Z,75.47
2022-09-01T06:21:26.353Z,75.91
2022-09-01T06:22:26.343Z,75.54
2022-09-01T06:23:26.328Z,74.29
2022-09-01T06:24:26.315Z,73.18
2022-09-01T06:25:26.306Z,73.79
2022-09-01T06:26:26.292Z,73.28
2022-09-01T06:27:26.278Z,72.94
2022-09-01T06:28:26.267Z,73.24
2022-09-01T06:29:26.252Z,73.48
2022-09-01T06:30:26.251Z,73.08
2022-09-01T06:31:26.264Z,71.80
2022-09-01T06:32:26.311Z,72.61
2022-09-01T06:33:26.202Z,72.71
2022-09-01T06:34:26.189Z,72.27
2022-09-01T06:35:26.176Z,71.77
2022-09-01T06:36:26.168Z,72.54
2022-09-01T06:37:26.152Z,70.75
2022-09-01T06:38:26.140Z,69.51
2022-09-01T06:39:26.126Z,66.47
2022-09-01T06:40:26.244Z,66.50
2022-09-01T06:41:26.101Z,67.10
2022-09-01T06:42:26.099Z,65.87
2022-09-01T06:43:26.075Z,65.38
2022-09-01T06:44:26.063Z,61.74
2022-09-01T06:45:26.047Z,57.56
2022-09-01T06:46:26.149Z,57.11
2022-09-01T06:47:26.022Z,55.65
2022-09-01T06:48:26.012Z,55.16
2022-09-01T06:49:25.998Z,54.13
2022-09-01T06:51:25.971Z,54.28
2022-09-01T06:52:26.102Z,52.27
2022-09-01T06:53:33.029Z,51.31
2022-09-01T06:54:27.934Z,52.91
2022-09-01T06:55:25.922Z,53.81
2022-09-01T06:56:25.911Z,52.16
2022-09-01T06:58:25.886Z,52.78
2022-09-01T06:59:25.871Z,53.81
2022-09-01T07:00:26.595Z,52.89
2022-09-01T07:01:25.956Z,51.47
2022-09-01T07:03:26.822Z,52.04
2022-09-01T07:04:25.809Z,50.74
2022-09-01T07:08:25.759Z,54.26
2022-09-01T07:09:47.083Z,55.12
2022-09-01T07:10:25.878Z,55.49
2022-09-01T07:12:26.437Z,58.08
2022-09-01T07:13:25.694Z,59.52
2022-09-01T07:14:25.682Z,59.41
2022-09-01T07:16:35.442Z,59.34
2022-09-01T07:17:27.660Z,59.74
2022-09-01T07:18:25.633Z,58.08
2022-09-01T07:19:48.325Z,58.31
2022-09-01T07:20:25.888Z,58.81
2022-09-01T07:21:42.487Z,59.01
2022-09-01T07:23:25.955Z,58.88
2022-09-01T07:24:31.704Z,58.38
2022-09-01T07:25:34.957Z,58.48
2022-09-01T07:26:26.387Z,57.98
2022-09-01T07:27:25.596Z,58.28
2022-09-01T07:28:26.204Z,58.16
2022-09-01T07:29:25.494Z,57.12
2022-09-01T07:30:25.480Z,56.32
2022-09-01T07:34:40.852Z,55.22
2022-09-01T07:35:27.413Z,54.94
2022-09-01T07:36:25.663Z,56.15
2022-09-01T07:43:28.312Z,50.62
2022-09-01T07:44:25.311Z,48.97
2022-09-01T07:45:25.963Z,50.26
2022-09-01T07:46:40.758Z,52.02
2022-09-01T07:47:56.824Z,53.16
2022-09-01T07:49:52.368Z,55.45
2022-09-01T07:51:35.197Z,56.07
2022-09-01T07:51:41.572Z,56.57
2022-09-01T07:52:27.198Z,54.37
2022-09-01T07:53:25.187Z,53.16
2022-09-01T07:54:25.179Z,54.02
2022-09-01T07:55:25.162Z,54.94
2022-09-01T07:56:25.153Z,55.35
2022-09-01T07:57:25.138Z,55.78
2022-09-01T07:58:25.129Z,56.00
2022-09-01T07:59:25.113Z,56.63
2022-09-01T08:00:25.100Z,57.03
2022-09-01T08:01:25.157Z,57.13
2022-09-01T08:02:25.228Z,57.03
2022-09-01T08:03:25.126Z,57.46
2022-09-01T08:04:25.048Z,57.76
2022-09-01T08:05:25.037Z,57.56
2022-09-01T08:06:25.023Z,57.46
2022-09-01T08:07:25.009Z,58.39
2022-09-01T08:08:29.490Z,58.49
2022-09-01T08:09:37.070Z,58.39
2022-09-01T08:10:26.971Z,58.47
2022-09-01T08:11:40.068Z,58.06
2022-09-01T08:12:29.973Z,58.06
2022-09-01T08:13:24.931Z,58.16
2022-09-01T08:14:24.923Z,57.73
2022-09-01T08:16:05.704Z,58.06
2022-09-01T08:16:26.933Z,57.96
2022-09-01T08:18:24.932Z,57.51
2022-09-01T08:19:24.856Z,56.81
2022-09-01T08:20:24.846Z,56.57
2022-09-01T08:21:24.830Z,56.37
2022-09-01T08:22:24.849Z,55.87
2022-09-01T08:23:24.804Z,55.78
2022-09-01T08:24:24.793Z,56.07
2022-09-01T08:25:25.196Z,55.95
2022-09-01T08:26:24.768Z,55.22
2022-09-01T08:27:24.754Z,54.59
2022-09-01T08:28:28.203Z,54.49
2022-09-01T08:29:24.728Z,53.84
2022-09-01T08:30:24.715Z,51.19
2022-09-01T08:31:24.786Z,47.68
2022-09-01T08:32:24.691Z,45.61
2022-09-01T08:33:24.676Z,43.64
2022-09-01T08:34:24.672Z,43.02
2022-09-01T08:36:25.951Z,44.00
2022-09-01T08:37:24.626Z,43.78
2022-09-01T08:38:24.616Z,43.12
2022-09-01T08:39:24.603Z,42.50
2022-09-01T08:40:24.683Z,42.20
2022-09-01T08:41:28.489Z,41.88
2022-09-01T08:42:24.566Z,41.47
2022-09-01T08:43:24.555Z,41.57
2022-09-01T08:44:24.543Z,42.10
2022-09-01T08:45:24.530Z,41.91
2022-09-01T08:46:24.576Z,41.18
2022-09-01T08:47:43.707Z,40.56
2022-09-01T08:49:18.389Z,40.52
2022-09-01T08:49:26.930Z,39.73
2022-09-01T08:50:24.469Z,39.73
2022-09-01T08:51:24.454Z,39.10
2022-09-01T08:52:25.647Z,39.12
2022-09-01T08:53:24.430Z,40.03
2022-09-01T08:54:29.431Z,39.63
2022-09-01T08:55:24.407Z,40.03
2022-09-01T08:56:24.402Z,40.46
2022-09-01T08:57:24.384Z,42.64
2022-09-01T08:58:24.373Z,43.04
2022-09-01T08:59:24.970Z,42.84
2022-09-01T09:00:24.350Z,42.30
2022-09-01T09:01:24.393Z,41.57
2022-09-01T09:02:24.395Z,40.64
2022-09-01T09:03:24.311Z,39.83
2022-09-01T09:04:24.300Z,39.73
2022-09-01T09:05:24.291Z,40.44
2022-09-01T09:06:24.276Z,40.24
2022-09-01T09:07:24.262Z,41.07
2022-09-01T09:08:24.863Z,40.56
2022-09-01T09:09:32.400Z,40.14
2022-09-01T09:10:26.227Z,39.00
2022-09-01T09:11:24.216Z,38.27
2022-09-01T09:12:24.206Z,38.27
2022-09-01T09:13:24.190Z,39.41
2022-09-01T09:14:24.181Z,39.41
2022-09-01T09:15:24.229Z,39.81
2022-09-01T09:16:24.237Z,39.59
2022-09-01T09:17:24.143Z,38.90
2022-09-01T09:18:39.131Z,38.88
2022-09-01T09:19:24.119Z,39.52
2022-09-01T09:20:24.133Z,39.00
2022-09-01T09:21:24.094Z,38.69
2022-09-01T09:22:24.084Z,38.17
2022-09-01T09:23:24.152Z,39.61
2022-09-01T09:24:24.060Z,39.73
2022-09-01T09:25:24.048Z,39.81
2022-09-01T09:26:24.037Z,39.69
2022-09-01T09:27:24.026Z,38.96
2022-09-01T09:28:24.482Z,38.23
2022-09-01T09:29:24.000Z,37.84
2022-09-01T09:30:24.624Z,36.70
2022-09-01T09:31:24.066Z,36.10
2022-09-01T09:32:35.136Z,36.19
2022-09-01T09:33:47.547Z,36.06
2022-09-01T09:34:25.946Z,35.26
2022-09-01T09:35:23.935Z,34.85
2022-09-01T09:36:25.538Z,34.44
2022-09-01T09:37:23.915Z,35.26
2022-09-01T09:38:24.331Z,36.18
2022-09-01T09:39:23.884Z,35.78
2022-09-01T09:40:25.347Z,35.57
2022-09-01T09:41:27.590Z,34.94
2022-09-01T09:42:23.850Z,35.16
2022-09-01T09:43:25.544Z,34.83
2022-09-01T09:44:23.826Z,34.03
2022-09-01T09:45:23.812Z,33.89
2022-09-01T09:46:25.230Z,34.13
2022-09-01T09:47:42.665Z,34.42
2022-09-01T09:48:23.780Z,34.94
2022-09-01T09:49:35.859Z,35.65
2022-09-01T09:50:23.760Z,35.76
2022-09-01T09:51:23.745Z,35.87
2022-09-01T09:52:23.736Z,35.75
2022-09-01T09:53:23.723Z,34.83
2022-09-01T09:54:23.713Z,34.22
2022-09-01T09:55:23.702Z,33.91
2022-09-01T09:56:23.693Z,33.29
2022-09-01T09:57:23.677Z,33.60
2022-09-01T09:58:23.665Z,34.22
2022-09-01T09:59:39.840Z,34.42
2022-09-01T10:00:24.579Z,34.24
2022-09-01T10:01:24.252Z,34.44
2022-09-01T10:02:23.620Z,34.85
2022-09-01T10:03:28.925Z,35.35
2022-09-01T10:04:23.653Z,35.88
2022-09-01T10:05:23.588Z,36.27
2022-09-01T10:06:23.575Z,36.18
2022-09-01T10:07:23.565Z,36.18
2022-09-01T10:08:23.552Z,36.68
2022-09-01T10:09:23.551Z,36.78
2022-09-01T10:10:23.529Z,36.66
2022-09-01T10:11:23.521Z,35.75
2022-09-01T10:12:23.506Z,35.83
2022-09-01T10:13:23.496Z,35.02
2022-09-01T10:14:35.280Z,36.06
2022-09-01T10:15:23.473Z,36.80
2022-09-01T10:16:23.486Z,37.20
2022-09-01T10:17:23.511Z,37.06
2022-09-01T10:18:29.200Z,36.47
2022-09-01T10:19:25.428Z,36.87
2022-09-01T10:20:23.415Z,35.94
2022-09-01T10:21:23.407Z,35.22
2022-09-01T10:22:23.393Z,34.60
2022-09-01T10:23:23.384Z,34.50
2022-09-01T10:24:26.945Z,34.40
2022-09-01T10:25:23.361Z,33.88
2022-09-01T10:26:23.349Z,33.47
2022-09-01T10:27:23.340Z,33.08
2022-09-01T10:28:23.720Z,33.59
2022-09-01T10:29:23.315Z,33.18
2022-09-01T10:30:23.315Z,33.38
2022-09-01T10:31:23.994Z,33.16
2022-09-01T10:32:46.639Z,33.21
2022-09-01T10:33:25.269Z,33.60
2022-09-01T10:34:23.259Z,33.09
2022-09-01T10:35:23.248Z,32.67
2022-09-01T10:36:24.389Z,32.59
2022-09-01T10:37:23.232Z,33.00
2022-09-01T10:38:23.212Z,33.29
2022-09-01T10:39:28.322Z,34.03
2022-09-01T10:40:30.288Z,35.04
2022-09-01T10:41:25.250Z,34.22
2022-09-01T10:42:23.168Z,33.91
2022-09-01T10:43:23.159Z,34.30
2022-09-01T10:44:23.148Z,33.80
2022-09-01T10:45:23.136Z,34.01
2022-09-01T10:46:26.678Z,33.62
2022-09-01T10:47:25.137Z,33.62
2022-09-01T10:48:31.092Z,33.41
2022-09-01T10:49:27.751Z,33.11
2022-09-01T10:50:23.083Z,32.98
2022-09-01T10:51:28.892Z,32.79
2022-09-01T10:52:28.497Z,32.90
2022-09-01T10:53:26.915Z,33.08
2022-09-01T10:54:23.040Z,32.79
2022-09-01T10:55:24.867Z,32.49
2022-09-01T10:56:28.403Z,32.28
2022-09-01T10:57:27.056Z,32.80
2022-09-01T10:59:31.247Z,33.02
2022-09-01T11:00:40.483Z,32.38
2022-09-01T11:01:47.383Z,33.11
2022-09-01T11:02:24.809Z,33.41
2022-09-01T11:03:31.571Z,32.90
2022-09-01T11:04:25.029Z,32.49
2022-09-01T11:05:22.926Z,32.38
2022-09-01T11:06:22.913Z,31.76
2022-09-01T11:07:44.415Z,31.57
2022-09-01T11:08:22.891Z,31.68
2022-09-01T11:09:22.882Z,31.48
2022-09-01T11:10:36.240Z,32.33
2022-09-01T11:11:24.862Z,32.33
2022-09-01T11:12:29.772Z,32.94
2022-09-01T11:13:22.841Z,34.39
2022-09-01T11:14:22.828Z,35.29
2022-09-01T11:15:22.820Z,34.78
2022-09-01T11:16:45.962Z,34.47
2022-09-01T11:17:22.937Z,33.85
2022-09-01T11:18:23.015Z,32.73
2022-09-01T11:19:22.774Z,32.31
2022-09-01T11:20:22.765Z,32.94
2022-09-01T11:21:22.751Z,33.16
2022-09-01T11:22:22.739Z,33.18
2022-09-01T11:23:22.729Z,34.19
2022-09-01T11:24:22.716Z,34.32
2022-09-01T11:25:22.705Z,33.80
2022-09-01T11:26:22.692Z,33.29
2022-09-01T11:27:22.683Z,32.56
2022-09-01T11:28:22.805Z,32.03
2022-09-01T11:29:22.660Z,32.46
2022-09-01T11:30:22.646Z,33.48
2022-09-01T11:31:22.715Z,34.01
2022-09-01T11:32:22.624Z,34.67
2022-09-01T11:33:22.617Z,36.18
2022-09-01T11:34:22.603Z,36.00
2022-09-01T11:35:22.590Z,36.41
2022-09-01T11:36:22.576Z,36.48
2022-09-01T11:37:22.567Z,34.75
2022-09-01T11:38:22.650Z,35.29
2022-09-01T11:39:22.546Z,34.46
2022-09-01T11:40:22.580Z,33.53
2022-09-01T11:41:22.521Z,32.77
2022-09-01T11:42:22.511Z,31.03
2022-09-01T11:43:22.498Z,29.21
2022-09-01T11:44:22.486Z,29.33
2022-09-01T11:45:22.475Z,29.33
2022-09-01T11:46:22.567Z,28.61
2022-09-01T11:47:22.451Z,29.35
2022-09-01T11:48:22.440Z,29.96
2022-09-01T11:49:22.428Z,30.47
2022-09-01T11:50:22.416Z,30.06
2022-09-01T11:51:22.407Z,29.38
2022-09-01T11:52:22.405Z,29.36
2022-09-01T11:53:22.494Z,29.78
2022-09-01T11:54:22.372Z,30.38
2022-09-01T11:55:22.362Z,30.51
2022-09-01T11:56:22.347Z,31.82
2022-09-01T11:57:22.337Z,32.65
2022-09-01T11:58:22.327Z,33.27
2022-09-01T11:59:22.314Z,33.50
2022-09-01T12:00:22.312Z,34.42
2022-09-01T12:01:22.304Z,35.05
2022-09-01T12:02:22.426Z,34.93
2022-09-01T12:03:22.811Z,33.80
2022-09-01T12:04:22.257Z,33.80
2022-09-01T12:05:22.247Z,32.47
2022-09-01T12:06:22.231Z,31.34
2022-09-01T12:07:22.221Z,30.52
2022-09-01T12:08:24.055Z,30.09
2022-09-01T12:09:22.197Z,28.87
2022-09-01T12:10:22.183Z,28.57
2022-09-01T12:11:22.173Z,28.55
2022-09-01T12:12:22.160Z,28.34
2022-09-01T12:13:22.306Z,28.05
2022-09-01T12:14:22.137Z,28.49
2022-09-01T12:15:22.126Z,29.42
2022-09-01T12:16:22.113Z,28.77
2022-09-01T12:17:22.153Z,27.56
2022-09-01T12:18:22.089Z,26.85
2022-09-01T12:19:22.078Z,26.22
2022-09-01T12:20:26.699Z,26.03
2022-09-01T12:21:24.064Z,26.32
2022-09-01T12:22:22.043Z,27.25
2022-09-01T12:23:22.033Z,27.46
2022-09-01T12:24:22.020Z,27.06
2022-09-01T12:25:22.011Z,27.68
2022-09-01T12:26:21.998Z,28.28
2022-09-01T12:27:21.987Z,29.95
2022-09-01T12:28:21.974Z,30.95
2022-09-01T12:29:21.962Z,30.84
2022-09-01T12:30:21.950Z,30.23
2022-09-01T12:31:22.035Z,29.39
2022-09-01T12:32:21.927Z,27.77
2022-09-01T12:33:23.531Z,28.27
2022-09-01T12:34:21.903Z,27.16
2022-09-01T12:35:21.892Z,26.83
2022-09-01T12:37:21.908Z,27.38
2022-09-01T12:38:22.032Z,27.17
2022-09-01T12:39:21.845Z,27.28
2022-09-01T12:40:21.862Z,27.78
2022-09-01T12:42:21.810Z,27.38
2022-09-01T12:43:21.974Z,28.30
2022-09-01T12:44:21.787Z,28.91
2022-09-01T12:45:21.777Z,29.11
2022-09-01T12:46:21.798Z,29.01
2022-09-01T12:47:21.750Z,29.63
2022-09-01T12:48:21.737Z,29.11
2022-09-01T12:49:21.726Z,28.48
2022-09-01T12:50:21.715Z,27.36
2022-09-01T12:51:26.639Z,27.47
2022-09-01T12:52:21.689Z,28.71
2022-09-01T12:53:22.043Z,29.21
2022-09-01T12:54:21.667Z,28.91
2022-09-01T12:56:21.646Z,28.48
2022-09-01T12:57:21.634Z,27.58
2022-09-01T12:58:21.622Z,26.37
2022-09-01T12:59:26.221Z,25.46
2022-09-01T13:00:23.600Z,25.45
2022-09-01T13:01:21.695Z,26.68
2022-09-01T13:02:21.781Z,27.09
2022-09-01T13:03:21.834Z,27.49
2022-09-01T13:04:21.552Z,27.67
2022-09-01T13:05:21.542Z,26.95
2022-09-01T13:06:21.528Z,27.27
2022-09-01T13:07:21.517Z,27.46
2022-09-01T13:08:21.503Z,27.96
2022-09-01T13:09:21.493Z,28.17
2022-09-01T13:10:22.778Z,28.91
2022-09-01T13:11:21.467Z,29.94
2022-09-01T13:12:21.478Z,31.18
2022-09-01T13:13:21.654Z,31.49
2022-09-01T13:14:21.433Z,31.05
2022-09-01T13:15:21.425Z,30.93
2022-09-01T13:16:21.451Z,29.52
2022-09-01T13:17:21.400Z,29.21
2022-09-01T13:18:21.522Z,28.80
2022-09-01T13:19:27.762Z,28.49